Latest Coastal Weather Observations for Gabo Island (VIC)

IDN60701

Issued at 1:25 pm EST Thursday 24 April 2014 (issued every 10 minutes, with the page automatically refreshed every 10 minutes)

About coastal observations | Map of coastal stations | Coastal observations for NSW | Marine services | Other Formats
Station Details ID: 084016 Name: GABO ISLAND LIGHTHOUSE Lat: -37.57 Lon: 149.92 Height: 15.2 m
Data from the previous 72 hours. | See also: Recent months at Gabo Island (VIC)
Date/Time
EST
Temp

°C
Wind Pressure Rain
since 9am
mm
Weather Cloud Vis
km
Sea
Height
m
Swell
Dir
 
Speed
knots
Gust
knots
hPa Trend Height
m
Period
s
Dir
24/01:01pm 19.1 SW 32 42 1011.1 - 0.0 - - - - - - -
24/01:00pm 19.4 SW 32 41 1011.1 - 0.0 - - - - - - -
24/12:59pm 19.4 SW 31 41 1011.1 - 0.0 - - - - - - -
24/12:43pm 19.8 SW 25 32 1011.0 - 0.0 - - - - - - -
24/12:30pm 20.2 SW 18 22 1011.2 - 0.0 - - - - - - -
24/12:00pm 21.2 WSW 19 26 1011.5 - 0.0 - - - - - - -
24/11:51am 21.3 WSW 20 25 1011.5 - 0.0 - - - - - - -
24/11:30am 20.5 W 11 15 1011.5 - 0.0 - - - - - - -
24/11:00am 19.6 WSW 8 10 1011.6 - 0.0 - - - - - - -
24/10:30am 18.5 W 6 9 1011.5 - 0.0 - - - - - - -
24/10:00am 18.5 W 6 7 1011.5 - 0.0 - - - - - - -
24/09:30am 17.5 NW 7 10 1011.4 - 0.0 - - - - - - -
24/09:00am 15.8 NW 7 10 1011.6 - 0.0 Fine Partly cloudy 50 1 1.0 - S
24/08:30am 14.2 NW 8 10 1011.6 - 0.0 - - - - - - -
24/08:00am 14.7 W 11 13 1011.3 - 0.0 - - - - - - -
24/07:30am 14.1 W 6 7 1010.6 - 0.0 - - - - - - -
24/07:00am 13.7 W 6 7 1010.2 - 0.0 - - - - - - -
24/06:30am 14.8 NNW 2 5 1009.9 - 0.0 - - - - - - -
24/06:00am 14.2 N 4 4 1009.8 - 0.0 - - - - - - -
24/05:30am 14.7 N 4 4 1009.7 - 0.0 - - - - - - -
24/05:00am 14.4 NNW 3 4 1009.7 - 0.0 - - - - - - -
24/04:30am 15.4 WNW 5 6 1009.9 - 0.0 - - - - - - -
24/04:00am 15.3 NW 6 7 1010.0 - 0.0 - - - - - - -
24/03:30am 15.1 W 5 6 1010.1 - 0.0 - - - - - - -
24/03:00am 15.6 WNW 5 6 1010.3 - 0.0 Lightning Cloudy 30 1 1.0 - S
24/02:30am 14.7 NW 5 5 1010.6 - 0.0 - - - - - - -
24/02:00am 15.4 WNW 6 7 1011.0 - 0.0 - - - - - - -
24/01:30am 15.2 WNW 7 7 1011.3 - 0.0 - - - - - - -
24/01:00am 15.2 WNW 6 7 1011.5 - 0.0 - - - - - - -
24/12:30am 15.6 WNW 5 7 1011.8 - 0.0 - - - - - - -
24/12:00am 15.8 WNW 7 8 1011.9 - 0.0 - - - - - - -
 
Date/Time
EST
Temp

°C
Wind Pressure Rain
since 9am
mm
Weather Cloud Vis
km
Sea
Height
m
Swell
Dir
 
Speed
knots
Gust
knots
hPa Trend Height
m
Period
s
Dir
23/11:30pm 16.2 W 8 10 1012.2 - 0.0 - - - - - - -
23/11:00pm 16.5 W 7 8 1012.3 - 0.0 - - - - - - -
23/10:30pm 16.8 W 9 10 1012.5 - 0.0 - - - - - - -
23/10:00pm 17.0 W 10 13 1012.6 - 0.0 - - - - - - -
23/09:30pm 17.0 W 10 12 1012.7 - 0.0 - - - - - - -
23/09:00pm 17.4 W 10 12 1012.8 - 0.0 Lightning Partly cloudy 30 1 1.0 - S
23/08:30pm 17.5 W 8 10 1012.6 - 0.0 - - - - - - -
23/08:00pm 17.9 W 8 9 1012.9 - 0.0 - - - - - - -
23/07:30pm 18.8 SW 7 9 1012.8 - 0.0 - - - - - - -
23/07:00pm 18.8 SW 8 9 1012.9 - 0.0 - - - - - - -
23/06:30pm 18.7 SSW 7 9 1012.6 - 0.0 - - - - - - -
23/06:00pm 19.1 SSW 6 8 1012.5 - 0.0 - - - - - - -
23/05:30pm 18.9 E 4 5 1012.5 - 0.0 - - - - - - -
23/05:00pm 19.1 ENE 6 8 1012.3 - 0.0 - - - - - - -
23/04:30pm 19.4 ENE 7 9 1012.1 - 0.0 - - - - - - -
23/04:00pm 19.6 ENE 9 10 1012.2 - 0.0 - - - - - - -
23/03:30pm 20.1 ENE 7 8 1012.4 - 0.0 - - - - - - -
23/03:00pm 20.1 E 7 9 1012.6 - 0.0 Fine Partly cloudy 50 1 1.0 - S
23/02:30pm 20.0 ENE 8 9 1012.5 - 0.0 - - - - - - -
23/02:00pm 19.9 ENE 9 11 1012.5 - 0.0 - - - - - - -
23/01:30pm 19.6 E 9 11 1012.9 - 0.0 - - - - - - -
23/01:00pm 19.4 E 9 11 1013.4 - 0.0 - - - - - - -
23/12:30pm 19.3 E 8 9 1013.9 - 0.0 - - - - - - -
23/12:00pm 18.9 E 7 9 1014.7 - 0.0 - - - - - - -
23/11:30am 19.0 E 6 8 1015.0 - 0.0 - - - - - - -
23/11:00am 19.0 ENE 4 5 1015.6 - 0.0 - - - - - - -
23/10:30am 19.3 E 3 4 1015.8 - 0.0 - - - - - - -
23/10:00am 17.4 SSW 2 4 1015.9 - 0.0 - - - - - - -
23/09:30am 17.7 NW 1 4 1016.4 - 0.0 - - - - - - -
23/09:00am 17.0 WNW 4 5 1016.8 - 0.0 Fine Mostly cloudy 40 <0.5 1.0 - S
23/08:30am 16.8 NW 3 5 1017.0 - 0.0 - - - - - - -
23/08:00am 16.8 WNW 5 6 1017.1 - 0.0 - - - - - - -
23/07:30am 16.1 NW 5 6 1016.8 - 0.0 - - - - - - -
23/07:00am 15.6 WNW 5 7 1016.4 - 0.0 - - - - - - -
23/06:30am 15.4 NW 6 8 1016.4 - 0.0 - - - - - - -
23/06:00am 15.5 WNW 7 9 1016.3 - 0.0 - - - - - - -
23/05:30am 15.8 W 8 10 1016.5 - 0.0 - - - - - - -
23/05:00am 15.8 W 8 9 1016.6 - 0.0 - - - - - - -
23/04:30am 15.8 W 8 11 1016.7 - 0.0 - - - - - - -
23/04:00am 15.9 W 9 11 1016.5 - 0.0 - - - - - - -
23/03:30am 15.9 W 9 11 1016.5 - 0.0 - - - - - - -
23/03:00am 15.7 W 7 8 1016.4 - 0.0 Fine Cloudy 40 <0.5 1.0 - NE
23/02:30am 16.0 W 8 10 1016.7 - 0.0 - - - - - - -
23/02:00am 16.1 W 11 13 1017.2 - 0.0 - - - - - - -
23/01:30am 16.0 W 8 11 1017.1 - 0.0 - - - - - - -
23/01:00am 16.0 W 10 13 1017.3 - 0.0 - - - - - - -
23/12:30am 16.2 W 8 10 1017.1 - 0.0 - - - - - - -
23/12:00am 16.3 W 10 13 1017.2 - 0.0 - - - - - - -
 
Date/Time
EST
Temp

°C
Wind Pressure Rain
since 9am
mm
Weather Cloud Vis
km
Sea
Height
m
Swell
Dir
 
Speed
knots
Gust
knots
hPa Trend Height
m
Period
s
Dir
22/11:30pm 16.2 WNW 8 9 1017.1 - 0.0 - - - - - - -
22/11:00pm 16.3 WNW 8 10 1017.2 - 0.0 - - - - - - -
22/10:30pm 16.9 WSW 11 13 1017.1 - 0.0 - - - - - - -
22/10:00pm 16.5 WNW 7 8 1017.0 - 0.0 - - - - - - -
22/09:30pm 18.1 SW 9 11 1016.8 - 0.0 - - - - - - -
22/09:00pm 17.5 SW 3 3 1016.3 - 0.0 Fine Mostly clear 40 <0.5 1.0 - NE
22/08:30pm 16.7 NNW 1 5 1016.2 - 0.0 - - - - - - -
22/08:00pm 17.1 CALM 0 3 1015.8 - 0.0 - - - - - - -
22/07:30pm 17.3 N 6 8 1015.6 - 0.0 - - - - - - -
22/07:00pm 17.7 N 7 8 1015.1 - 0.0 - - - - - - -
22/06:30pm 16.8 N 7 8 1014.9 - 0.0 - - - - - - -
22/06:00pm 16.8 N 5 6 1014.4 - 0.0 - - - - - - -
22/05:30pm 17.6 N 3 4 1014.1 - 0.0 - - - - - - -
22/05:00pm 18.3 N 4 4 1014.0 - 0.0 - - - - - - -
22/04:30pm 19.0 N 3 4 1014.1 - 0.0 - - - - - - -
22/04:00pm 19.6 CALM 0 0 1014.1 - 0.0 - - - - - - -
22/03:30pm 20.0 SSW 3 4 1014.0 - 0.0 - - - - - - -
22/03:00pm 20.2 SW 5 6 1014.2 - 0.0 Fine Mostly cloudy 40 <0.5 1.0 - NE
22/02:30pm 20.3 SW 9 11 1014.4 - 0.0 - - - - - - -
22/02:00pm 20.5 SSW 6 8 1014.2 - 0.0 - - - - - - -
22/01:30pm 20.7 SSW 6 7 1014.4 - 0.0 - - - - - - -
22/01:00pm 19.9 SW 7 9 1014.7 - 0.0 - - - - - - -
22/12:30pm 20.3 WSW 8 9 1014.8 - 0.0 - - - - - - -
22/12:00pm 19.4 WSW 11 14 1015.0 - 0.0 - - - - - - -
22/11:30am 19.3 WSW 12 15 1015.2 - 0.0 - - - - - - -
22/11:00am 20.1 W 11 19 1015.4 - 0.0 - - - - - - -
22/10:30am 19.1 SSW 17 18 1015.1 - 0.0 - - - - - - -
22/10:00am 19.6 S 4 7 1014.5 - 0.0 - - - - - - -
22/09:30am 19.5 N 1 4 1014.7 - 0.0 - - - - - - -
22/09:00am 18.9 N 4 6 1014.8 - 0.0 Distant precip. Mostly cloudy 40 <0.5 1.0 - E
22/08:30am 18.5 NNE 4 6 1014.9 - 0.0 - - - - - - -
22/08:00am 18.9 N 7 9 1014.6 - 0.0 - - - - - - -
22/07:30am 16.2 NNE 5 6 1014.5 - 0.0 - - - - - - -
22/07:00am 17.2 N 4 5 1014.3 - 0.0 - - - - - - -
22/06:30am 15.6 N 7 8 1014.1 - 0.0 - - - - - - -
22/06:00am 16.1 NNE 9 10 1014.0 - 0.0 - - - - - - -
22/05:30am 15.2 NNE 6 7 1014.1 - 0.0 - - - - - - -
22/05:00am 16.0 NNE 7 9 1014.2 - 0.0 - - - - - - -
22/04:30am 15.2 N 6 7 1014.3 - 0.0 - - - - - - -
22/04:00am 16.5 N 9 10 1014.2 - 0.0 - - - - - - -
22/03:30am 16.3 N 9 11 1014.3 - 0.0 - - - - - - -
22/03:00am 15.5 N 6 7 1014.7 - 0.0 Fine Partly cloudy 40 <0.5 1.0 - S
22/02:30am 16.2 N 8 9 1015.0 - 0.0 - - - - - - -
22/02:00am 16.9 N 11 14 1015.0 - 0.0 - - - - - - -
22/01:30am 17.1 N 11 14 1015.2 - 0.0 - - - - - - -
22/01:00am 17.1 N 10 14 1015.5 - 0.0 - - - - - - -
22/12:30am 17.7 N 14 17 1015.6 - 0.0 - - - - - - -
22/12:00am 17.8 N 17 22 1015.7 - 0.0 - - - - - - -
 
Date/Time
EST
Temp

°C
Wind Pressure Rain
since 9am
mm
Weather Cloud Vis
km
Sea
Height
m
Swell
Dir
 
Speed
knots
Gust
knots
hPa Trend Height
m
Period
s
Dir
21/11:30pm 18.1 NNE 20 24 1015.8 - 0.0 - - - - - - -
21/11:00pm 18.2 NNE 21 25 1016.0 - 0.0 - - - - - - -
21/10:30pm 18.3 N 21 26 1016.3 - 0.0 - - - - - - -
21/10:00pm 18.3 N 20 28 1016.7 - 0.0 - - - - - - -
21/09:30pm 18.2 N 19 25 1017.1 - 0.0 - - - - - - -
21/09:00pm 18.0 N 18 25 1017.3 - 0.0 Fine Mostly clear 40 1 1.0 - S
21/08:30pm 18.0 NNE 16 20 1017.5 - 0.0 - - - - - - -
21/08:00pm 17.3 N 12 17 1017.9 - 0.0 - - - - - - -
21/07:30pm 16.7 N 8 10 1018.0 - 0.0 - - - - - - -
21/07:00pm 17.2 NNE 12 15 1017.9 - 0.0 - - - - - - -
21/06:30pm 17.1 NNE 12 14 1017.7 - 0.0 - - - - - - -
21/06:00pm 17.0 NNE 11 13 1017.7 - 0.0 - - - - - - -
21/05:30pm 17.5 NNE 12 15 1017.4 - 0.0 - - - - - - -
21/05:00pm 18.2 NNE 14 17 1017.3 - 0.0 - - - - - - -
21/04:30pm 18.4 NNE 15 19 1017.4 - 0.0 - - - - - - -
21/04:00pm 18.6 NE 15 18 1017.5 - 0.0 - - - - - - -
21/03:30pm 18.8 NE 15 17 1017.7 - 0.0 - - - - - - -
21/03:00pm 18.9 NE 12 14 1018.2 - 0.0 Fine Mostly cloudy 50 1 1.0 - S
21/02:30pm 18.9 NE 11 13 1018.3 - 0.0 - - - - - - -
21/02:00pm 18.9 NE 8 11 1018.5 - 0.0 - - - - - - -
21/01:30pm 18.9 ENE 7 9 1018.6 - 0.0 - - - - - - -

Other Formats:

Comma delimited format used in spreadsheet applications
http://www.bom.gov.au/fwo/IDN60701/IDN60701.94933.axf

JavaScript Object Notation format (JSON) in row-major order
http://www.bom.gov.au/fwo/IDN60701/IDN60701.94933.json